createdAt,value
2023-02-11T00:01:09.181Z,-3.56
2023-02-11T00:03:36.219Z,-3.58
2023-02-11T00:06:05.116Z,-3.60
2023-02-11T00:08:32.013Z,-3.63
2023-02-11T00:10:59.113Z,-3.63
2023-02-11T00:13:26.493Z,-3.63
2023-02-11T00:15:54.367Z,-3.63
2023-02-11T00:18:21.308Z,-3.62
2023-02-11T00:20:48.148Z,-3.60
2023-02-11T00:23:15.505Z,-3.60
2023-02-11T00:25:43.183Z,-3.60
2023-02-11T00:28:10.491Z,-3.61
2023-02-11T00:30:37.818Z,-3.61
2023-02-11T00:33:04.926Z,-3.63
2023-02-11T00:35:32.513Z,-3.64
2023-02-11T00:38:00.452Z,-3.66
2023-02-11T00:40:27.156Z,-3.70
2023-02-11T00:42:54.139Z,-3.72
2023-02-11T00:45:21.001Z,-3.72
2023-02-11T00:47:48.655Z,-3.72
2023-02-11T00:50:15.593Z,-3.71
2023-02-11T00:52:43.004Z,-3.70
2023-02-11T00:55:10.245Z,-3.70
2023-02-11T00:57:38.611Z,-3.71
2023-02-11T01:00:06.343Z,-3.69
2023-02-11T01:02:33.239Z,-3.69
2023-02-11T01:05:00.636Z,-3.67
2023-02-11T01:07:27.928Z,-3.67
2023-02-11T01:09:55.059Z,-3.68
2023-02-11T01:12:22.351Z,-3.67
2023-02-11T01:14:49.894Z,-3.66
2023-02-11T01:17:18.738Z,-3.64
2023-02-11T01:27:44.427Z,-3.44
2023-02-11T01:30:12.425Z,-3.39
2023-02-11T01:32:39.663Z,-3.35
2023-02-11T01:35:07.408Z,-3.31
2023-02-11T01:37:35.713Z,-3.28
2023-02-11T01:40:03.970Z,-3.26
2023-02-11T01:42:32.113Z,-3.23
2023-02-11T01:44:59.576Z,-3.19
2023-02-11T01:47:26.280Z,-3.16
2023-02-11T01:49:57.822Z,-3.13
2023-02-11T01:52:31.497Z,-3.09
2023-02-11T01:55:20.070Z,-3.07
2023-02-11T01:57:56.350Z,-3.04
2023-02-11T02:00:28.683Z,-3.01
2023-02-11T02:03:01.555Z,-2.97
2023-02-11T02:05:52.557Z,-2.94
2023-02-11T02:08:40.317Z,-2.91
2023-02-11T02:11:12.494Z,-2.89
2023-02-11T02:13:39.476Z,-2.87
2023-02-11T02:16:09.948Z,-2.85
2023-02-11T02:18:57.589Z,-2.82
2023-02-11T02:21:56.569Z,-2.80
2023-02-11T02:24:39.095Z,-2.78
2023-02-11T02:27:25.202Z,-2.77
2023-02-11T02:30:16.411Z,-2.78
2023-02-11T02:33:21.838Z,-2.77
2023-02-11T02:35:51.530Z,-2.78
2023-02-11T02:38:22.611Z,-2.78
2023-02-11T02:41:03.386Z,-2.77
2023-02-11T02:43:30.727Z,-2.77
2023-02-11T02:46:13.563Z,-2.75
2023-02-11T02:48:40.451Z,-2.73
2023-02-11T02:51:45.950Z,-2.69
2023-02-11T02:54:42.040Z,-2.66
2023-02-11T02:57:18.338Z,-2.63
2023-02-11T03:00:06.885Z,-2.61
2023-02-11T03:03:05.479Z,-2.60
2023-02-11T03:05:54.156Z,-2.57
2023-02-11T03:08:31.556Z,-2.56
2023-02-11T03:10:58.473Z,-2.55
2023-02-11T03:13:27.786Z,-2.54
2023-02-11T03:15:55.481Z,-2.54
2023-02-11T03:18:24.888Z,-2.53
2023-02-11T03:20:53.051Z,-2.52
2023-02-11T03:23:32.797Z,-2.51
2023-02-11T03:26:04.726Z,-2.50
2023-02-11T03:28:37.048Z,-2.50
2023-02-11T03:31:09.810Z,-2.50
2023-02-11T03:33:50.266Z,-2.49
2023-02-11T03:36:50.370Z,-2.48
2023-02-11T03:39:20.532Z,-2.48
2023-02-11T03:41:48.353Z,-2.48
2023-02-11T03:44:15.877Z,-2.48
2023-02-11T03:46:48.652Z,-2.48
2023-02-11T03:49:16.867Z,-2.46
2023-02-11T03:51:46.381Z,-2.46
2023-02-11T03:54:14.867Z,-2.46
2023-02-11T03:56:48.561Z,-2.47
2023-02-11T03:59:15.655Z,-2.48
2023-02-11T04:01:44.756Z,-2.47
2023-02-11T04:04:12.043Z,-2.44
2023-02-11T04:06:38.844Z,-2.42
2023-02-11T04:09:06.257Z,-2.43
2023-02-11T04:11:34.058Z,-2.41
2023-02-11T04:14:00.870Z,-2.40
2023-02-11T04:16:30.375Z,-2.41
2023-02-11T04:18:57.298Z,-2.41
2023-02-11T04:21:24.160Z,-2.41
2023-02-11T04:23:53.080Z,-2.40
2023-02-11T04:26:20.717Z,-2.40
2023-02-11T04:28:48.144Z,-2.40
2023-02-11T04:31:15.496Z,-2.41
2023-02-11T04:33:42.639Z,-2.42
2023-02-11T04:36:09.340Z,-2.40
2023-02-11T04:38:36.049Z,-2.39
2023-02-11T04:41:02.928Z,-2.38
2023-02-11T04:43:30.158Z,-2.36
2023-02-11T04:45:58.177Z,-2.34
2023-02-11T04:48:25.278Z,-2.31
2023-02-11T04:50:52.047Z,-2.30
2023-02-11T04:53:18.761Z,-2.28
2023-02-11T04:55:49.184Z,-2.27
2023-02-11T04:58:17.269Z,-2.26
2023-02-11T05:00:45.842Z,-2.26
2023-02-11T05:03:13.148Z,-2.27
2023-02-11T05:05:41.043Z,-2.27
2023-02-11T05:08:09.797Z,-2.26
2023-02-11T05:10:38.461Z,-2.24
2023-02-11T05:13:05.359Z,-2.23
2023-02-11T05:15:32.753Z,-2.20
2023-02-11T05:18:00.005Z,-2.16
2023-02-11T05:20:27.433Z,-2.14
2023-02-11T05:30:36.234Z,-1.97
2023-02-11T05:33:04.911Z,-1.95
2023-02-11T05:35:33.297Z,-1.91
2023-02-11T05:38:02.082Z,-1.87
2023-02-11T05:40:30.307Z,-1.84
2023-02-11T05:43:00.090Z,-1.81
2023-02-11T05:45:28.375Z,-1.79
2023-02-11T05:47:57.366Z,-1.77
2023-02-11T05:50:25.616Z,-1.74
2023-02-11T05:52:54.102Z,-1.71
2023-02-11T05:55:22.810Z,-1.67
2023-02-11T05:57:51.165Z,-1.64
2023-02-11T06:00:19.666Z,-1.61
2023-02-11T06:02:48.260Z,-1.60
2023-02-11T06:05:16.509Z,-1.56
2023-02-11T06:07:46.013Z,-1.52
2023-02-11T06:10:14.902Z,-1.49
2023-02-11T06:12:43.116Z,-1.44
2023-02-11T06:15:12.690Z,-1.39
2023-02-11T06:17:41.069Z,-1.35
2023-02-11T06:20:10.730Z,-1.31
2023-02-11T06:22:39.164Z,-1.28
2023-02-11T06:25:07.373Z,-1.25
2023-02-11T06:27:35.825Z,-1.24
2023-02-11T06:30:05.903Z,-1.23
2023-02-11T06:32:49.378Z,-1.20
2023-02-11T06:35:18.072Z,-1.17
2023-02-11T06:37:48.172Z,-1.14
2023-02-11T06:40:16.315Z,-1.10
2023-02-11T06:42:44.444Z,-1.07
2023-02-11T06:45:13.596Z,-1.02
2023-02-11T06:47:42.646Z,-1.00
2023-02-11T06:50:12.364Z,-0.99
2023-02-11T06:52:41.010Z,-0.98
2023-02-11T06:55:09.285Z,-0.94
2023-02-11T06:57:38.823Z,-0.90
2023-02-11T07:00:08.197Z,-0.88
2023-02-11T07:02:38.172Z,-0.86
2023-02-11T07:05:07.389Z,-0.83
2023-02-11T07:07:36.954Z,-0.79
2023-02-11T07:10:07.157Z,-0.78
2023-02-11T07:12:40.300Z,-0.72
2023-02-11T07:15:08.572Z,-0.68
2023-02-11T07:17:36.896Z,-0.63
2023-02-11T07:20:05.628Z,-0.59
2023-02-11T07:22:35.082Z,-0.56
2023-02-11T07:25:04.619Z,-0.53
2023-02-11T07:27:34.208Z,-0.51
2023-02-11T07:30:04.881Z,-0.48
2023-02-11T07:32:34.648Z,-0.48
2023-02-11T07:35:04.655Z,-0.48
2023-02-11T07:37:35.307Z,-0.48
2023-02-11T07:40:03.860Z,-0.46
2023-02-11T07:42:32.668Z,-0.43
2023-02-11T07:45:02.288Z,-0.40
2023-02-11T07:47:30.975Z,-0.36
2023-02-11T07:49:59.546Z,-0.30
2023-02-11T07:52:31.308Z,-0.25
2023-02-11T07:54:59.476Z,-0.22
2023-02-11T07:57:27.730Z,-0.19
2023-02-11T07:59:56.355Z,-0.16
2023-02-11T08:02:25.679Z,-0.14
2023-02-11T08:04:54.206Z,-0.11
2023-02-11T08:07:22.423Z,-0.06
2023-02-11T08:09:55.548Z,0.02
2023-02-11T08:12:23.889Z,0.10
2023-02-11T08:14:51.936Z,0.20
2023-02-11T08:17:20.146Z,0.29
2023-02-11T08:19:48.174Z,0.36
2023-02-11T08:22:16.132Z,0.42
2023-02-11T08:24:44.481Z,0.45
2023-02-11T08:27:12.538Z,0.48
2023-02-11T08:29:40.715Z,0.55
2023-02-11T08:32:08.778Z,0.59
2023-02-11T08:34:37.884Z,0.61
2023-02-11T08:37:05.911Z,0.65
2023-02-11T08:39:34.520Z,0.71
2023-02-11T08:42:02.657Z,0.79
2023-02-11T08:44:31.173Z,0.87
2023-02-11T08:46:59.352Z,0.94
2023-02-11T08:49:27.851Z,1.01
2023-02-11T08:51:56.428Z,1.09
2023-02-11T08:54:24.645Z,1.16
2023-02-11T08:56:52.983Z,1.24
2023-02-11T08:59:21.455Z,1.34
2023-02-11T09:01:49.594Z,1.46
2023-02-11T09:04:18.451Z,1.57
2023-02-11T09:06:46.628Z,1.68
2023-02-11T09:09:15.418Z,1.83
2023-02-11T09:11:43.943Z,1.96
2023-02-11T09:14:21.974Z,2.08
2023-02-11T09:16:51.402Z,2.19
2023-02-11T09:19:19.720Z,2.27
2023-02-11T09:21:49.879Z,2.36
2023-02-11T09:24:18.542Z,2.46
2023-02-11T09:26:46.716Z,2.54
2023-02-11T09:29:14.743Z,2.63
2023-02-11T09:31:42.920Z,2.72
2023-02-11T09:34:11.224Z,2.79
2023-02-11T09:36:40.796Z,2.89
2023-02-11T09:39:12.682Z,2.99
2023-02-11T09:42:12.947Z,3.07
2023-02-11T09:44:41.582Z,3.20
2023-02-11T09:47:45.744Z,3.27
2023-02-11T09:50:15.940Z,3.34
2023-02-11T09:53:01.705Z,3.38
2023-02-11T09:55:32.400Z,3.42
2023-02-11T09:58:01.026Z,3.47
2023-02-11T10:00:37.111Z,3.52
2023-02-11T10:03:26.162Z,3.57
2023-02-11T10:06:27.835Z,3.66
2023-02-11T10:09:15.745Z,3.74
2023-02-11T10:11:50.130Z,3.81
2023-02-11T10:14:23.826Z,3.86
2023-02-11T10:16:54.605Z,3.93
2023-02-11T10:19:55.122Z,4.00
2023-02-11T10:22:25.930Z,4.06
2023-02-11T10:25:00.340Z,4.07
2023-02-11T10:27:32.649Z,4.11
2023-02-11T10:30:28.522Z,4.15
2023-02-11T10:33:03.456Z,4.22
2023-02-11T10:35:31.982Z,4.24
2023-02-11T10:38:00.005Z,4.24
2023-02-11T10:40:29.601Z,4.26
2023-02-11T10:43:00.183Z,4.31
2023-02-11T10:45:55.295Z,4.33
2023-02-11T10:48:42.378Z,4.30
2023-02-11T10:51:13.405Z,4.21
2023-02-11T10:53:43.114Z,4.14
2023-02-11T10:56:19.831Z,4.11
2023-02-11T10:59:07.751Z,4.09
2023-02-11T11:01:50.303Z,4.06
2023-02-11T11:04:30.636Z,4.06
2023-02-11T11:07:27.652Z,4.05
2023-02-11T11:10:26.654Z,4.00
2023-02-11T11:12:54.679Z,3.96
2023-02-11T11:15:26.955Z,3.88
2023-02-11T11:18:21.016Z,3.77
2023-02-11T11:21:02.906Z,3.57
2023-02-11T11:23:31.179Z,3.43
2023-02-11T11:26:06.475Z,3.31
2023-02-11T11:28:40.630Z,3.17
2023-02-11T11:31:19.316Z,3.03
2023-02-11T11:33:48.892Z,2.95
2023-02-11T11:36:18.890Z,2.91
2023-02-11T11:38:58.100Z,2.85
2023-02-11T11:41:28.027Z,2.77
2023-02-11T11:44:16.177Z,2.74
2023-02-11T11:46:44.287Z,2.72
2023-02-11T11:49:29.634Z,2.74
2023-02-11T11:52:18.496Z,2.77
2023-02-11T11:54:50.746Z,2.84
2023-02-11T11:57:19.643Z,2.89
2023-02-11T11:59:47.736Z,2.93
2023-02-11T12:02:53.189Z,2.95
2023-02-11T12:05:33.165Z,2.96
2023-02-11T12:08:40.230Z,2.98
2023-02-11T12:11:30.044Z,3.00
2023-02-11T12:14:24.155Z,3.01
2023-02-11T12:17:14.192Z,3.01
2023-02-11T12:20:03.210Z,3.01
2023-02-11T12:23:10.076Z,3.04
2023-02-11T12:26:01.144Z,3.04
2023-02-11T12:28:40.996Z,3.01
2023-02-11T12:31:32.656Z,3.00
2023-02-11T12:34:12.526Z,3.02
2023-02-11T12:36:54.473Z,3.04
2023-02-11T12:39:40.747Z,3.05
2023-02-11T12:42:40.287Z,3.05
2023-02-11T12:45:11.959Z,3.01
2023-02-11T12:48:11.164Z,2.97
2023-02-11T12:51:08.163Z,2.96
2023-02-11T12:53:46.219Z,2.92
2023-02-11T12:56:16.616Z,2.90
2023-02-11T12:58:45.895Z,2.88
2023-02-11T13:01:23.230Z,2.87
2023-02-11T13:04:06.100Z,2.87
2023-02-11T13:06:45.569Z,2.86
2023-02-11T13:09:19.058Z,2.85
2023-02-11T13:11:52.097Z,2.83
2023-02-11T13:14:32.362Z,2.83
2023-02-11T13:17:02.624Z,2.82
2023-02-11T13:19:34.511Z,2.82
2023-02-11T13:22:03.387Z,2.80
2023-02-11T13:24:49.415Z,2.77
2023-02-11T13:27:39.115Z,2.74
2023-02-11T13:30:26.105Z,2.73
2023-02-11T13:32:58.155Z,2.73
2023-02-11T13:35:36.419Z,2.72
2023-02-11T13:38:22.456Z,2.69
2023-02-11T13:41:04.748Z,2.65
2023-02-11T13:43:34.881Z,2.59
2023-02-11T13:46:04.724Z,2.54
2023-02-11T13:48:33.911Z,2.49
2023-02-11T13:51:05.950Z,2.43
2023-02-11T13:54:05.291Z,2.39
2023-02-11T13:56:38.281Z,2.34
2023-02-11T13:59:27.689Z,2.33
2023-02-11T14:02:38.824Z,2.32
2023-02-11T14:05:47.926Z,2.34
2023-02-11T14:08:40.612Z,2.34
2023-02-11T14:11:58.146Z,2.34
2023-02-11T14:14:36.180Z,2.33
2023-02-11T14:17:18.927Z,2.31
2023-02-11T14:19:49.497Z,2.30
2023-02-11T14:22:32.543Z,2.27
2023-02-11T14:25:05.054Z,2.22
2023-02-11T14:27:57.197Z,2.17
2023-02-11T14:30:39.438Z,2.14
2023-02-11T14:33:21.041Z,2.10
2023-02-11T14:36:14.349Z,2.07
2023-02-11T14:39:09.451Z,2.06
2023-02-11T14:41:44.519Z,2.02
2023-02-11T14:44:20.467Z,1.99
2023-02-11T14:46:53.486Z,1.95
2023-02-11T14:49:35.311Z,1.92
2023-02-11T14:52:31.862Z,1.87
2023-02-11T14:55:32.512Z,1.82
2023-02-11T14:58:28.176Z,1.77
2023-02-11T15:01:10.173Z,1.71
2023-02-11T15:11:18.130Z,1.67
2023-02-11T15:13:49.904Z,1.63
2023-02-11T15:16:22.868Z,1.63
2023-02-11T15:18:57.128Z,1.61
2023-02-11T15:21:27.807Z,1.59
2023-02-11T15:23:57.290Z,1.55
2023-02-11T15:26:26.240Z,1.50
2023-02-11T15:28:54.727Z,1.47
2023-02-11T15:31:25.057Z,1.46
2023-02-11T15:33:54.044Z,1.43
2023-02-11T15:36:28.732Z,1.40
2023-02-11T15:39:16.814Z,1.36
2023-02-11T15:41:45.088Z,1.36
2023-02-11T15:44:30.126Z,1.32
2023-02-11T15:46:59.356Z,1.30
2023-02-11T15:49:27.533Z,1.29
2023-02-11T15:51:56.030Z,1.27
2023-02-11T15:54:26.897Z,1.23
2023-02-11T15:57:00.014Z,1.22
2023-02-11T15:59:41.032Z,1.21
2023-02-11T16:02:17.080Z,1.17
2023-02-11T17:05:55.064Z,0.90
2023-02-11T17:08:23.851Z,0.91
2023-02-11T17:10:51.100Z,0.94
2023-02-11T17:13:18.259Z,0.95
2023-02-11T17:15:45.205Z,0.96
2023-02-11T17:18:13.988Z,0.99
2023-02-11T17:20:41.666Z,1.00
2023-02-11T17:23:08.599Z,1.00
2023-02-11T17:25:37.691Z,1.00
2023-02-11T17:28:05.401Z,0.99
2023-02-11T17:30:32.297Z,0.99
2023-02-11T17:32:59.349Z,1.00
2023-02-11T17:35:26.344Z,1.02
2023-02-11T17:37:53.461Z,1.03
2023-02-11T17:40:21.156Z,1.05
2023-02-11T17:42:48.360Z,1.05
2023-02-11T17:45:16.033Z,1.06
2023-02-11T17:47:43.070Z,1.07
2023-02-11T17:50:10.347Z,1.08
2023-02-11T17:52:41.860Z,1.09
2023-02-11T17:55:08.907Z,1.09
2023-02-11T17:57:36.280Z,1.09
2023-02-11T18:00:04.778Z,1.11
2023-02-11T18:02:39.906Z,1.12
2023-02-11T18:05:07.338Z,1.13
2023-02-11T18:07:34.922Z,1.14
2023-02-11T18:10:07.577Z,1.15
2023-02-11T18:12:35.003Z,1.17
2023-02-11T18:15:02.209Z,1.17
2023-02-11T18:17:29.974Z,1.17
2023-02-11T18:19:57.450Z,1.19
2023-02-11T18:22:24.582Z,1.20
2023-02-11T18:24:54.471Z,1.21
2023-02-11T18:27:21.760Z,1.21
2023-02-11T18:29:48.801Z,1.20
2023-02-11T18:32:15.643Z,1.20
2023-02-11T18:34:42.906Z,1.20
2023-02-11T18:37:13.826Z,1.21
2023-02-11T18:39:41.930Z,1.22
2023-02-11T18:42:09.321Z,1.22
2023-02-11T18:44:37.136Z,1.20
2023-02-11T18:47:03.929Z,1.19
2023-02-11T18:49:32.671Z,1.18
2023-02-11T18:51:59.621Z,1.20
2023-02-11T18:54:28.794Z,1.20
2023-02-11T18:56:55.769Z,1.22
2023-02-11T18:59:24.032Z,1.22
2023-02-11T19:01:51.252Z,1.22
2023-02-11T19:04:19.429Z,1.23
2023-02-11T19:06:48.251Z,1.23
2023-02-11T19:09:17.231Z,1.26
2023-02-11T19:11:50.130Z,1.28
2023-02-11T19:14:19.123Z,1.30
2023-02-11T19:16:47.378Z,1.31
2023-02-11T19:19:14.502Z,1.31
2023-02-11T19:21:43.237Z,1.32
2023-02-11T19:24:10.609Z,1.33
2023-02-11T19:26:38.359Z,1.34
2023-02-11T19:29:06.426Z,1.35
2023-02-11T19:31:34.663Z,1.36
2023-02-11T19:34:02.621Z,1.38
2023-02-11T19:36:29.568Z,1.40
2023-02-11T19:39:00.895Z,1.42
2023-02-11T19:41:29.051Z,1.42
2023-02-11T19:43:56.502Z,1.44
2023-02-11T19:46:26.317Z,1.44
2023-02-11T19:48:53.472Z,1.45
2023-02-11T19:51:20.799Z,1.47
2023-02-11T19:53:47.989Z,1.47
2023-02-11T19:56:15.632Z,1.48
2023-02-11T19:58:42.805Z,1.48
2023-02-11T20:01:14.697Z,1.48
2023-02-11T20:03:42.710Z,1.50
2023-02-11T20:06:12.567Z,1.50
2023-02-11T20:08:40.509Z,1.50
2023-02-11T20:11:14.318Z,1.50
2023-02-11T20:13:42.785Z,1.51
2023-02-11T20:16:12.768Z,1.52
2023-02-11T20:18:40.160Z,1.53
2023-02-11T20:21:08.760Z,1.53
2023-02-11T20:23:37.632Z,1.54
2023-02-11T20:26:08.773Z,1.54
2023-02-11T20:28:35.898Z,1.54
2023-02-11T20:31:04.642Z,1.54
2023-02-11T20:33:32.355Z,1.54
2023-02-11T20:36:10.599Z,1.53
2023-02-11T20:38:38.080Z,1.52
2023-02-11T20:41:09.200Z,1.52
2023-02-11T20:43:38.089Z,1.52
2023-02-11T20:46:07.012Z,1.52
2023-02-11T20:48:35.352Z,1.51
2023-02-11T20:51:10.899Z,1.50
2023-02-11T20:53:39.897Z,1.49
2023-02-11T20:56:08.590Z,1.49
2023-02-11T20:58:35.527Z,1.49
2023-02-11T21:01:18.146Z,1.48
2023-02-11T21:03:52.270Z,1.47
2023-02-11T21:06:25.764Z,1.47
2023-02-11T21:08:53.698Z,1.47
2023-02-11T21:11:20.774Z,1.48
2023-02-11T21:13:50.478Z,1.49
2023-02-11T21:16:19.922Z,1.50
2023-02-11T21:18:48.795Z,1.51
2023-02-11T21:21:16.646Z,1.51
2023-02-11T21:23:44.758Z,1.51
2023-02-11T21:26:16.577Z,1.51
2023-02-11T21:36:45.015Z,1.54
2023-02-11T21:39:13.089Z,1.52
2023-02-11T21:41:39.674Z,1.52
2023-02-11T21:44:06.409Z,1.51
2023-02-11T21:46:33.703Z,1.50
2023-02-11T21:49:03.001Z,1.48
2023-02-11T21:51:30.384Z,1.48
2023-02-11T21:53:59.178Z,1.48
2023-02-11T21:56:27.554Z,1.47
2023-02-11T21:58:55.342Z,1.47
2023-02-11T22:01:27.281Z,1.49
2023-02-11T22:03:54.021Z,1.51
2023-02-11T22:06:22.824Z,1.52
2023-02-11T22:08:49.851Z,1.53
2023-02-11T22:11:16.949Z,1.54
2023-02-11T22:13:43.852Z,1.56
2023-02-11T22:16:12.513Z,1.55
2023-02-11T22:18:39.578Z,1.56
2023-02-11T22:21:12.366Z,1.56
2023-02-11T22:23:39.644Z,1.56
2023-02-11T22:26:08.718Z,1.56
2023-02-11T22:28:38.502Z,1.56
2023-02-11T22:31:06.505Z,1.56
2023-02-11T22:33:33.751Z,1.58
2023-02-11T22:36:05.431Z,1.59
2023-02-11T22:38:33.682Z,1.60
2023-02-11T22:41:04.273Z,1.59
2023-02-11T22:43:31.403Z,1.58
2023-02-11T22:46:02.156Z,1.58
2023-02-11T22:48:29.248Z,1.57
2023-02-11T22:50:56.395Z,1.56
2023-02-11T22:53:24.975Z,1.54
2023-02-11T22:55:52.682Z,1.52
2023-02-11T22:58:19.774Z,1.52
2023-02-11T23:00:46.646Z,1.51
2023-02-11T23:03:14.621Z,1.51
2023-02-11T23:05:41.495Z,1.48
2023-02-11T23:08:10.345Z,1.46
2023-02-11T23:10:39.177Z,1.44
2023-02-11T23:13:09.863Z,1.41
2023-02-11T23:15:40.205Z,1.37
2023-02-11T23:18:07.441Z,1.35
2023-02-11T23:20:36.431Z,1.33
2023-02-11T23:23:03.588Z,1.31
2023-02-11T23:25:31.056Z,1.30
2023-02-11T23:27:58.407Z,1.28
2023-02-11T23:30:25.270Z,1.27
2023-02-11T23:32:53.928Z,1.25
2023-02-11T23:35:24.848Z,1.23
2023-02-11T23:37:52.226Z,1.21
2023-02-11T23:40:20.094Z,1.21
2023-02-11T23:42:47.245Z,1.20
2023-02-11T23:45:14.189Z,1.19
2023-02-11T23:47:41.953Z,1.18
2023-02-11T23:50:09.527Z,1.17
2023-02-11T23:52:36.975Z,1.17
2023-02-11T23:55:04.538Z,1.18
2023-02-11T23:57:32.740Z,1.18
